sensor_id;sensor_type;location;lat;lon;timestamp;P1;durP1;ratioP1;P2;durP2;ratioP2
5452;SDS011;2749;53.576;9.822;2023-02-01T00:01:24;19.40;;;4.53;;
5452;SDS011;2749;53.576;9.822;2023-02-01T00:03:50;17.80;;;5.40;;
5452;SDS011;2749;53.576;9.822;2023-02-01T00:06:16;17.37;;;4.20;;
5452;SDS011;2749;53.576;9.822;2023-02-01T00:08:42;17.00;;;4.27;;
5452;SDS011;2749;53.576;9.822;2023-02-01T00:11:10;16.60;;;4.40;;
5452;SDS011;2749;53.576;9.822;2023-02-01T00:13:37;19.70;;;4.63;;
5452;SDS011;2749;53.576;9.822;2023-02-01T00:16:20;13.27;;;4.03;;
5452;SDS011;2749;53.576;9.822;2023-02-01T00:18:46;15.50;;;3.83;;
5452;SDS011;2749;53.576;9.822;2023-02-01T00:21:13;22.60;;;4.33;;
5452;SDS011;2749;53.576;9.822;2023-02-01T00:23:39;17.40;;;4.97;;
5452;SDS011;2749;53.576;9.822;2023-02-01T00:26:06;18.83;;;3.97;;
5452;SDS011;2749;53.576;9.822;2023-02-01T00:28:32;15.23;;;4.23;;
5452;SDS011;2749;53.576;9.822;2023-02-01T00:31:02;21.67;;;6.07;;
5452;SDS011;2749;53.576;9.822;2023-02-01T00:33:29;18.23;;;4.83;;
5452;SDS011;2749;53.576;9.822;2023-02-01T00:36:02;16.00;;;6.13;;
5452;SDS011;2749;53.576;9.822;2023-02-01T00:38:28;18.03;;;4.90;;
5452;SDS011;2749;53.576;9.822;2023-02-01T00:41:01;24.30;;;5.10;;
5452;SDS011;2749;53.576;9.822;2023-02-01T00:43:27;16.17;;;4.23;;
5452;SDS011;2749;53.576;9.822;2023-02-01T00:45:53;14.43;;;4.57;;
5452;SDS011;2749;53.576;9.822;2023-02-01T00:48:19;14.03;;;6.00;;
5452;SDS011;2749;53.576;9.822;2023-02-01T00:50:45;18.83;;;4.73;;
5452;SDS011;2749;53.576;9.822;2023-02-01T00:53:11;18.93;;;4.90;;
5452;SDS011;2749;53.576;9.822;2023-02-01T00:55:37;14.70;;;6.10;;
5452;SDS011;2749;53.576;9.822;2023-02-01T00:58:03;24.77;;;7.17;;
5452;SDS011;2749;53.576;9.822;2023-02-01T01:00:33;25.90;;;4.80;;
5452;SDS011;2749;53.576;9.822;2023-02-01T01:02:59;20.70;;;5.53;;
5452;SDS011;2749;53.576;9.822;2023-02-01T01:05:25;17.93;;;7.03;;
5452;SDS011;2749;53.576;9.822;2023-02-01T01:07:52;25.57;;;4.77;;
5452;SDS011;2749;53.576;9.822;2023-02-01T01:10:18;20.70;;;7.13;;
5452;SDS011;2749;53.576;9.822;2023-02-01T01:12:45;16.83;;;4.97;;
5452;SDS011;2749;53.576;9.822;2023-02-01T01:15:11;21.37;;;4.50;;
5452;SDS011;2749;53.576;9.822;2023-02-01T01:17:36;24.20;;;5.10;;
5452;SDS011;2749;53.576;9.822;2023-02-01T01:20:03;19.07;;;4.60;;
5452;SDS011;2749;53.576;9.822;2023-02-01T01:22:29;17.27;;;5.30;;
5452;SDS011;2749;53.576;9.822;2023-02-01T01:24:55;17.70;;;5.53;;
5452;SDS011;2749;53.576;9.822;2023-02-01T01:27:20;18.83;;;6.30;;
5452;SDS011;2749;53.576;9.822;2023-02-01T01:29:49;20.43;;;5.70;;
5452;SDS011;2749;53.576;9.822;2023-02-01T01:32:15;19.83;;;6.77;;
5452;SDS011;2749;53.576;9.822;2023-02-01T01:34:41;15.00;;;6.13;;
5452;SDS011;2749;53.576;9.822;2023-02-01T01:37:07;23.27;;;5.50;;
5452;SDS011;2749;53.576;9.822;2023-02-01T01:39:32;23.47;;;5.67;;
5452;SDS011;2749;53.576;9.822;2023-02-01T01:41:58;29.23;;;4.83;;
5452;SDS011;2749;53.576;9.822;2023-02-01T01:47:09;13.70;;;5.20;;
5452;SDS011;2749;53.576;9.822;2023-02-01T01:49:35;19.70;;;4.70;;
5452;SDS011;2749;53.576;9.822;2023-02-01T01:52:03;18.20;;;5.30;;
5452;SDS011;2749;53.576;9.822;2023-02-01T01:54:31;21.90;;;5.37;;
5452;SDS011;2749;53.576;9.822;2023-02-01T01:56:59;30.43;;;5.90;;
5452;SDS011;2749;53.576;9.822;2023-02-01T01:59:26;21.30;;;6.70;;
5452;SDS011;2749;53.576;9.822;2023-02-01T02:01:52;20.10;;;5.97;;
5452;SDS011;2749;53.576;9.822;2023-02-01T02:04:19;13.83;;;4.67;;
5452;SDS011;2749;53.576;9.822;2023-02-01T02:06:50;24.20;;;5.10;;
5452;SDS011;2749;53.576;9.822;2023-02-01T02:09:17;23.13;;;5.80;;
5452;SDS011;2749;53.576;9.822;2023-02-01T02:11:43;31.03;;;5.40;;
5452;SDS011;2749;53.576;9.822;2023-02-01T02:14:09;26.10;;;4.87;;
5452;SDS011;2749;53.576;9.822;2023-02-01T02:32:59;28.67;;;6.07;;
5452;SDS011;2749;53.576;9.822;2023-02-01T02:38:18;28.27;;;6.13;;
5452;SDS011;2749;53.576;9.822;2023-02-01T02:40:49;18.63;;;6.40;;
5452;SDS011;2749;53.576;9.822;2023-02-01T02:43:30;26.37;;;5.80;;
5452;SDS011;2749;53.576;9.822;2023-02-01T02:46:21;34.60;;;6.50;;
5452;SDS011;2749;53.576;9.822;2023-02-01T02:49:49;16.70;;;5.60;;
5452;SDS011;2749;53.576;9.822;2023-02-01T02:51:57;27.03;;;6.30;;
5452;SDS011;2749;53.576;9.822;2023-02-01T02:54:45;18.83;;;6.03;;
5452;SDS011;2749;53.576;9.822;2023-02-01T02:57:15;12.67;;;4.43;;
5452;SDS011;2749;53.576;9.822;2023-02-01T03:00:00;23.73;;;6.20;;
5452;SDS011;2749;53.576;9.822;2023-02-01T03:02:46;22.73;;;4.67;;
5452;SDS011;2749;53.576;9.822;2023-02-01T03:05:32;21.73;;;4.60;;
5452;SDS011;2749;53.576;9.822;2023-02-01T03:08:02;27.83;;;6.50;;
5452;SDS011;2749;53.576;9.822;2023-02-01T03:16:00;15.77;;;4.53;;
5452;SDS011;2749;53.576;9.822;2023-02-01T03:18:36;18.03;;;4.97;;
5452;SDS011;2749;53.576;9.822;2023-02-01T03:21:06;14.80;;;6.00;;
5452;SDS011;2749;53.576;9.822;2023-02-01T03:23:35;15.00;;;3.23;;
5452;SDS011;2749;53.576;9.822;2023-02-01T03:26:03;8.57;;;2.40;;
5452;SDS011;2749;53.576;9.822;2023-02-01T03:28:30;7.97;;;2.50;;
5452;SDS011;2749;53.576;9.822;2023-02-01T03:30:56;9.20;;;3.67;;
5452;SDS011;2749;53.576;9.822;2023-02-01T03:33:23;10.23;;;2.60;;
5452;SDS011;2749;53.576;9.822;2023-02-01T03:35:59;14.03;;;3.40;;
5452;SDS011;2749;53.576;9.822;2023-02-01T03:43:34;13.80;;;3.90;;
5452;SDS011;2749;53.576;9.822;2023-02-01T03:46:02;17.33;;;4.33;;
5452;SDS011;2749;53.576;9.822;2023-02-01T03:48:31;6.17;;;3.40;;
5452;SDS011;2749;53.576;9.822;2023-02-01T03:50:57;14.80;;;5.00;;
5452;SDS011;2749;53.576;9.822;2023-02-01T03:53:25;15.27;;;4.10;;
5452;SDS011;2749;53.576;9.822;2023-02-01T03:55:51;16.90;;;3.83;;
5452;SDS011;2749;53.576;9.822;2023-02-01T03:58:19;15.87;;;3.77;;
5452;SDS011;2749;53.576;9.822;2023-02-01T04:00:53;14.03;;;6.60;;
5452;SDS011;2749;53.576;9.822;2023-02-01T04:03:19;21.53;;;5.17;;
5452;SDS011;2749;53.576;9.822;2023-02-01T04:05:47;17.33;;;4.50;;
5452;SDS011;2749;53.576;9.822;2023-02-01T04:08:12;23.47;;;4.67;;
5452;SDS011;2749;53.576;9.822;2023-02-01T04:10:38;8.53;;;3.80;;
5452;SDS011;2749;53.576;9.822;2023-02-01T04:13:04;16.03;;;4.30;;
5452;SDS011;2749;53.576;9.822;2023-02-01T04:15:31;13.40;;;3.10;;
5452;SDS011;2749;53.576;9.822;2023-02-01T04:17:58;22.30;;;6.30;;
5452;SDS011;2749;53.576;9.822;2023-02-01T04:20:24;9.47;;;4.23;;
5452;SDS011;2749;53.576;9.822;2023-02-01T04:22:50;24.13;;;4.90;;
5452;SDS011;2749;53.576;9.822;2023-02-01T04:25:16;14.10;;;4.23;;
5452;SDS011;2749;53.576;9.822;2023-02-01T04:27:42;13.10;;;4.27;;
5452;SDS011;2749;53.576;9.822;2023-02-01T04:30:08;21.50;;;3.93;;
5452;SDS011;2749;53.576;9.822;2023-02-01T04:32:35;14.50;;;3.40;;
5452;SDS011;2749;53.576;9.822;2023-02-01T04:35:01;9.13;;;3.57;;
5452;SDS011;2749;53.576;9.822;2023-02-01T04:37:27;9.57;;;3.10;;
5452;SDS011;2749;53.576;9.822;2023-02-01T04:39:53;14.83;;;3.20;;
5452;SDS011;2749;53.576;9.822;2023-02-01T04:42:19;16.17;;;3.63;;
5452;SDS011;2749;53.576;9.822;2023-02-01T04:44:45;13.00;;;2.40;;
5452;SDS011;2749;53.576;9.822;2023-02-01T04:47:11;9.43;;;2.90;;
5452;SDS011;2749;53.576;9.822;2023-02-01T04:49:37;12.13;;;2.87;;
5452;SDS011;2749;53.576;9.822;2023-02-01T04:52:03;12.53;;;4.10;;
5452;SDS011;2749;53.576;9.822;2023-02-01T04:54:29;8.57;;;2.40;;
5452;SDS011;2749;53.576;9.822;2023-02-01T04:56:55;8.50;;;2.70;;
5452;SDS011;2749;53.576;9.822;2023-02-01T04:59:21;9.07;;;3.13;;
5452;SDS011;2749;53.576;9.822;2023-02-01T05:01:47;10.13;;;2.30;;
5452;SDS011;2749;53.576;9.822;2023-02-01T05:04:13;4.70;;;1.23;;
5452;SDS011;2749;53.576;9.822;2023-02-01T05:06:38;3.80;;;1.40;;
5452;SDS011;2749;53.576;9.822;2023-02-01T05:09:04;6.93;;;1.63;;
5452;SDS011;2749;53.576;9.822;2023-02-01T05:11:30;3.27;;;1.20;;
5452;SDS011;2749;53.576;9.822;2023-02-01T05:14:15;2.83;;;1.70;;
5452;SDS011;2749;53.576;9.822;2023-02-01T05:16:41;2.00;;;1.17;;
5452;SDS011;2749;53.576;9.822;2023-02-01T05:19:07;4.77;;;0.90;;
5452;SDS011;2749;53.576;9.822;2023-02-01T05:21:33;2.90;;;1.40;;
5452;SDS011;2749;53.576;9.822;2023-02-01T05:23:59;7.83;;;1.90;;
5452;SDS011;2749;53.576;9.822;2023-02-01T05:26:34;2.33;;;1.00;;
5452;SDS011;2749;53.576;9.822;2023-02-01T05:29:00;1.83;;;0.73;;
5452;SDS011;2749;53.576;9.822;2023-02-01T05:31:26;2.10;;;1.07;;
5452;SDS011;2749;53.576;9.822;2023-02-01T05:33:52;5.77;;;0.90;;
5452;SDS011;2749;53.576;9.822;2023-02-01T05:36:18;2.50;;;0.70;;
5452;SDS011;2749;53.576;9.822;2023-02-01T05:38:44;3.60;;;0.87;;
5452;SDS011;2749;53.576;9.822;2023-02-01T05:41:10;1.33;;;0.67;;
5452;SDS011;2749;53.576;9.822;2023-02-01T05:43:35;1.27;;;0.80;;
5452;SDS011;2749;53.576;9.822;2023-02-01T05:46:01;1.37;;;0.70;;
5452;SDS011;2749;53.576;9.822;2023-02-01T05:48:27;4.20;;;1.20;;
5452;SDS011;2749;53.576;9.822;2023-02-01T05:50:53;2.40;;;0.80;;
5452;SDS011;2749;53.576;9.822;2023-02-01T05:53:19;2.80;;;1.10;;
5452;SDS011;2749;53.576;9.822;2023-02-01T05:55:45;1.80;;;1.20;;
5452;SDS011;2749;53.576;9.822;2023-02-01T05:58:11;5.87;;;1.00;;
5452;SDS011;2749;53.576;9.822;2023-02-01T06:00:37;4.07;;;1.03;;
5452;SDS011;2749;53.576;9.822;2023-02-01T06:03:03;1.33;;;1.23;;
5452;SDS011;2749;53.576;9.822;2023-02-01T06:05:29;1.30;;;0.87;;
5452;SDS011;2749;53.576;9.822;2023-02-01T06:07:55;5.40;;;1.40;;
5452;SDS011;2749;53.576;9.822;2023-02-01T06:10:21;2.30;;;0.70;;
5452;SDS011;2749;53.576;9.822;2023-02-01T06:12:47;5.90;;;1.73;;
5452;SDS011;2749;53.576;9.822;2023-02-01T06:15:14;4.70;;;1.70;;
5452;SDS011;2749;53.576;9.822;2023-02-01T06:17:43;7.40;;;1.40;;
5452;SDS011;2749;53.576;9.822;2023-02-01T06:20:10;6.07;;;3.90;;
5452;SDS011;2749;53.576;9.822;2023-02-01T06:22:36;7.27;;;2.07;;
5452;SDS011;2749;53.576;9.822;2023-02-01T06:25:02;7.43;;;2.53;;
5452;SDS011;2749;53.576;9.822;2023-02-01T06:27:28;5.67;;;2.10;;
5452;SDS011;2749;53.576;9.822;2023-02-01T06:29:54;5.53;;;1.50;;
5452;SDS011;2749;53.576;9.822;2023-02-01T06:32:20;11.20;;;2.50;;
5452;SDS011;2749;53.576;9.822;2023-02-01T06:34:47;6.53;;;2.93;;
5452;SDS011;2749;53.576;9.822;2023-02-01T06:37:13;12.30;;;2.50;;
5452;SDS011;2749;53.576;9.822;2023-02-01T06:39:39;8.03;;;2.77;;
5452;SDS011;2749;53.576;9.822;2023-02-01T06:42:05;9.20;;;3.60;;
5452;SDS011;2749;53.576;9.822;2023-02-01T06:44:31;8.53;;;2.67;;
5452;SDS011;2749;53.576;9.822;2023-02-01T06:46:57;7.23;;;3.03;;
5452;SDS011;2749;53.576;9.822;2023-02-01T06:49:23;9.47;;;2.87;;
5452;SDS011;2749;53.576;9.822;2023-02-01T06:51:49;17.47;;;3.80;;
5452;SDS011;2749;53.576;9.822;2023-02-01T06:54:15;15.50;;;3.70;;
5452;SDS011;2749;53.576;9.822;2023-02-01T06:56:41;12.00;;;3.77;;
5452;SDS011;2749;53.576;9.822;2023-02-01T06:59:07;14.00;;;4.10;;
5452;SDS011;2749;53.576;9.822;2023-02-01T07:01:33;15.63;;;3.50;;
5452;SDS011;2749;53.576;9.822;2023-02-01T07:04:00;9.87;;;4.20;;
5452;SDS011;2749;53.576;9.822;2023-02-01T07:06:26;24.27;;;4.00;;
5452;SDS011;2749;53.576;9.822;2023-02-01T07:08:52;18.47;;;4.63;;
5452;SDS011;2749;53.576;9.822;2023-02-01T07:11:20;11.07;;;4.40;;
5452;SDS011;2749;53.576;9.822;2023-02-01T07:13:46;18.97;;;5.07;;
5452;SDS011;2749;53.576;9.822;2023-02-01T07:16:13;17.20;;;3.50;;
5452;SDS011;2749;53.576;9.822;2023-02-01T07:18:40;19.60;;;5.77;;
5452;SDS011;2749;53.576;9.822;2023-02-01T07:21:06;17.10;;;5.57;;
5452;SDS011;2749;53.576;9.822;2023-02-01T07:23:32;17.73;;;5.67;;
5452;SDS011;2749;53.576;9.822;2023-02-01T07:26:02;24.27;;;5.63;;
5452;SDS011;2749;53.576;9.822;2023-02-01T07:28:30;19.23;;;4.93;;
5452;SDS011;2749;53.576;9.822;2023-02-01T07:31:06;21.57;;;6.87;;
5452;SDS011;2749;53.576;9.822;2023-02-01T07:33:32;30.73;;;7.70;;
5452;SDS011;2749;53.576;9.822;2023-02-01T07:35:59;19.57;;;6.33;;
5452;SDS011;2749;53.576;9.822;2023-02-01T07:38:26;40.10;;;9.70;;
5452;SDS011;2749;53.576;9.822;2023-02-01T07:40:56;29.53;;;7.67;;
5452;SDS011;2749;53.576;9.822;2023-02-01T07:43:22;25.07;;;7.73;;
5452;SDS011;2749;53.576;9.822;2023-02-01T07:45:51;26.90;;;8.00;;
5452;SDS011;2749;53.576;9.822;2023-02-01T07:48:17;25.17;;;8.90;;
5452;SDS011;2749;53.576;9.822;2023-02-01T07:50:43;30.30;;;7.77;;
5452;SDS011;2749;53.576;9.822;2023-02-01T07:53:09;35.00;;;6.90;;
5452;SDS011;2749;53.576;9.822;2023-02-01T07:55:37;35.87;;;7.57;;
5452;SDS011;2749;53.576;9.822;2023-02-01T07:58:03;20.87;;;5.40;;
5452;SDS011;2749;53.576;9.822;2023-02-01T08:00:29;27.80;;;6.27;;
5452;SDS011;2749;53.576;9.822;2023-02-01T08:03:13;22.60;;;6.13;;
5452;SDS011;2749;53.576;9.822;2023-02-01T08:05:39;30.70;;;7.00;;
5452;SDS011;2749;53.576;9.822;2023-02-01T08:08:05;28.77;;;7.90;;
5452;SDS011;2749;53.576;9.822;2023-02-01T08:10:31;23.53;;;8.20;;
5452;SDS011;2749;53.576;9.822;2023-02-01T08:12:58;38.33;;;6.70;;
5452;SDS011;2749;53.576;9.822;2023-02-01T08:15:25;21.07;;;7.03;;
5452;SDS011;2749;53.576;9.822;2023-02-01T08:17:51;37.83;;;8.47;;
5452;SDS011;2749;53.576;9.822;2023-02-01T08:20:17;26.57;;;6.00;;
5452;SDS011;2749;53.576;9.822;2023-02-01T08:22:43;29.47;;;7.47;;
5452;SDS011;2749;53.576;9.822;2023-02-01T08:25:10;33.07;;;6.93;;
5452;SDS011;2749;53.576;9.822;2023-02-01T08:27:36;26.80;;;5.60;;
5452;SDS011;2749;53.576;9.822;2023-02-01T08:30:03;20.93;;;6.90;;
5452;SDS011;2749;53.576;9.822;2023-02-01T08:32:29;16.43;;;4.30;;
5452;SDS011;2749;53.576;9.822;2023-02-01T08:34:55;19.97;;;4.80;;
5452;SDS011;2749;53.576;9.822;2023-02-01T08:37:21;15.73;;;5.27;;
5452;SDS011;2749;53.576;9.822;2023-02-01T08:39:47;36.80;;;7.13;;
5452;SDS011;2749;53.576;9.822;2023-02-01T08:42:15;16.40;;;5.80;;
5452;SDS011;2749;53.576;9.822;2023-02-01T08:45:00;20.33;;;5.23;;
5452;SDS011;2749;53.576;9.822;2023-02-01T08:47:26;26.20;;;6.23;;
5452;SDS011;2749;53.576;9.822;2023-02-01T08:49:52;21.97;;;5.70;;
5452;SDS011;2749;53.576;9.822;2023-02-01T08:52:18;24.73;;;7.20;;
5452;SDS011;2749;53.576;9.822;2023-02-01T08:54:44;21.13;;;6.60;;
5452;SDS011;2749;53.576;9.822;2023-02-01T08:57:10;37.57;;;8.23;;
5452;SDS011;2749;53.576;9.822;2023-02-01T08:59:36;26.20;;;7.20;;
5452;SDS011;2749;53.576;9.822;2023-02-01T09:02:02;31.83;;;7.07;;
5452;SDS011;2749;53.576;9.822;2023-02-01T09:04:28;26.70;;;5.93;;
5452;SDS011;2749;53.576;9.822;2023-02-01T09:06:54;17.60;;;4.50;;
5452;SDS011;2749;53.576;9.822;2023-02-01T09:09:21;20.50;;;5.27;;
5452;SDS011;2749;53.576;9.822;2023-02-01T09:11:47;29.00;;;4.93;;
5452;SDS011;2749;53.576;9.822;2023-02-01T09:14:14;25.40;;;5.27;;
5452;SDS011;2749;53.576;9.822;2023-02-01T09:16:40;24.17;;;5.30;;
5452;SDS011;2749;53.576;9.822;2023-02-01T09:19:06;24.70;;;5.60;;
5452;SDS011;2749;53.576;9.822;2023-02-01T09:21:32;10.50;;;4.43;;
5452;SDS011;2749;53.576;9.822;2023-02-01T09:23:57;17.80;;;5.23;;
5452;SDS011;2749;53.576;9.822;2023-02-01T09:26:24;16.20;;;3.73;;
5452;SDS011;2749;53.576;9.822;2023-02-01T09:28:50;19.13;;;6.63;;
5452;SDS011;2749;53.576;9.822;2023-02-01T09:31:16;21.87;;;5.73;;
5452;SDS011;2749;53.576;9.822;2023-02-01T09:33:42;21.63;;;6.03;;
5452;SDS011;2749;53.576;9.822;2023-02-01T09:36:08;20.33;;;5.07;;
5452;SDS011;2749;53.576;9.822;2023-02-01T09:38:34;20.23;;;5.47;;
5452;SDS011;2749;53.576;9.822;2023-02-01T09:41:00;18.30;;;4.57;;
5452;SDS011;2749;53.576;9.822;2023-02-01T09:46:06;19.00;;;4.00;;
5452;SDS011;2749;53.576;9.822;2023-02-01T09:48:38;14.83;;;4.07;;
5452;SDS011;2749;53.576;9.822;2023-02-01T09:51:06;23.27;;;5.97;;
5452;SDS011;2749;53.576;9.822;2023-02-01T09:53:43;24.83;;;5.17;;
5452;SDS011;2749;53.576;9.822;2023-02-01T09:59:23;7.63;;;3.63;;
5452;SDS011;2749;53.576;9.822;2023-02-01T10:01:46;15.33;;;3.40;;
5452;SDS011;2749;53.576;9.822;2023-02-01T10:04:13;14.53;;;4.47;;
5452;SDS011;2749;53.576;9.822;2023-02-01T10:09:20;23.27;;;4.10;;
5452;SDS011;2749;53.576;9.822;2023-02-01T10:19:51;17.00;;;4.57;;
5452;SDS011;2749;53.576;9.822;2023-02-01T10:22:40;11.07;;;3.90;;
5452;SDS011;2749;53.576;9.822;2023-02-01T10:25:10;24.07;;;4.57;;
5452;SDS011;2749;53.576;9.822;2023-02-01T10:27:38;19.07;;;3.73;;
5452;SDS011;2749;53.576;9.822;2023-02-01T10:32:39;21.03;;;4.10;;
5452;SDS011;2749;53.576;9.822;2023-02-01T10:35:10;20.90;;;4.40;;
5452;SDS011;2749;53.576;9.822;2023-02-01T10:37:39;18.63;;;4.37;;
5452;SDS011;2749;53.576;9.822;2023-02-01T10:42:38;26.23;;;5.10;;
5452;SDS011;2749;53.576;9.822;2023-02-01T10:45:05;11.67;;;4.67;;
5452;SDS011;2749;53.576;9.822;2023-02-01T10:47:31;21.00;;;5.07;;
5452;SDS011;2749;53.576;9.822;2023-02-01T10:50:03;12.97;;;3.70;;
5452;SDS011;2749;53.576;9.822;2023-02-01T10:52:44;20.17;;;5.17;;
5452;SDS011;2749;53.576;9.822;2023-02-01T10:55:28;19.73;;;5.10;;
5452;SDS011;2749;53.576;9.822;2023-02-01T10:57:58;20.70;;;5.70;;
5452;SDS011;2749;53.576;9.822;2023-02-01T11:00:25;14.73;;;4.67;;
5452;SDS011;2749;53.576;9.822;2023-02-01T11:02:51;17.70;;;3.60;;
5452;SDS011;2749;53.576;9.822;2023-02-01T11:05:17;33.17;;;5.83;;
5452;SDS011;2749;53.576;9.822;2023-02-01T11:07:51;17.57;;;4.33;;
5452;SDS011;2749;53.576;9.822;2023-02-01T11:10:39;29.53;;;4.77;;
5452;SDS011;2749;53.576;9.822;2023-02-01T11:13:07;16.50;;;4.30;;
5452;SDS011;2749;53.576;9.822;2023-02-01T11:15:37;28.80;;;7.30;;
5452;SDS011;2749;53.576;9.822;2023-02-01T11:18:12;12.10;;;3.90;;
5452;SDS011;2749;53.576;9.822;2023-02-01T11:20:40;24.57;;;5.63;;
5452;SDS011;2749;53.576;9.822;2023-02-01T11:23:13;20.57;;;5.83;;
5452;SDS011;2749;53.576;9.822;2023-02-01T11:25:47;18.20;;;5.10;;
5452;SDS011;2749;53.576;9.822;2023-02-01T11:28:13;14.90;;;4.50;;
5452;SDS011;2749;53.576;9.822;2023-02-01T11:30:41;13.90;;;5.27;;
5452;SDS011;2749;53.576;9.822;2023-02-01T11:33:10;13.50;;;4.23;;
5452;SDS011;2749;53.576;9.822;2023-02-01T11:35:38;19.03;;;5.60;;
5452;SDS011;2749;53.576;9.822;2023-02-01T11:38:11;16.97;;;4.50;;
5452;SDS011;2749;53.576;9.822;2023-02-01T11:40:37;18.50;;;4.00;;
5452;SDS011;2749;53.576;9.822;2023-02-01T11:45:32;24.37;;;5.50;;
5452;SDS011;2749;53.576;9.822;2023-02-01T11:48:00;14.43;;;4.30;;
5452;SDS011;2749;53.576;9.822;2023-02-01T12:00:59;10.53;;;3.50;;
5452;SDS011;2749;53.576;9.822;2023-02-01T12:03:43;11.43;;;3.07;;
5452;SDS011;2749;53.576;9.822;2023-02-01T12:06:24;15.53;;;5.70;;
5452;SDS011;2749;53.576;9.822;2023-02-01T12:11:38;17.90;;;3.37;;
5452;SDS011;2749;53.576;9.822;2023-02-01T12:19:26;17.97;;;4.17;;
5452;SDS011;2749;53.576;9.822;2023-02-01T12:21:57;8.00;;;3.10;;
5452;SDS011;2749;53.576;9.822;2023-02-01T12:27:00;10.50;;;2.33;;
5452;SDS011;2749;53.576;9.822;2023-02-01T12:32:01;6.90;;;2.40;;
5452;SDS011;2749;53.576;9.822;2023-02-01T12:39:31;2.97;;;1.17;;
5452;SDS011;2749;53.576;9.822;2023-02-01T12:42:02;3.23;;;1.20;;
5452;SDS011;2749;53.576;9.822;2023-02-01T12:46:59;1.80;;;1.13;;
5452;SDS011;2749;53.576;9.822;2023-02-01T12:55:02;3.37;;;1.50;;
5452;SDS011;2749;53.576;9.822;2023-02-01T12:57:40;1.93;;;0.97;;
5452;SDS011;2749;53.576;9.822;2023-02-01T13:02:42;1.57;;;0.70;;
5452;SDS011;2749;53.576;9.822;2023-02-01T13:07:59;2.77;;;1.00;;
5452;SDS011;2749;53.576;9.822;2023-02-01T13:10:40;1.90;;;0.90;;
5452;SDS011;2749;53.576;9.822;2023-02-01T13:13:18;2.93;;;0.80;;
5452;SDS011;2749;53.576;9.822;2023-02-01T13:15:49;1.73;;;1.00;;
5452;SDS011;2749;53.576;9.822;2023-02-01T13:18:18;1.27;;;1.17;;
5452;SDS011;2749;53.576;9.822;2023-02-01T13:20:47;1.23;;;0.77;;
5452;SDS011;2749;53.576;9.822;2023-02-01T13:23:18;1.47;;;1.10;;
5452;SDS011;2749;53.576;9.822;2023-02-01T13:25:49;1.17;;;0.93;;
5452;SDS011;2749;53.576;9.822;2023-02-01T13:28:16;0.70;;;0.60;;
5452;SDS011;2749;53.576;9.822;2023-02-01T13:30:57;0.97;;;0.67;;
5452;SDS011;2749;53.576;9.822;2023-02-01T13:36:20;3.17;;;1.03;;
5452;SDS011;2749;53.576;9.822;2023-02-01T13:39:02;0.70;;;0.70;;
5452;SDS011;2749;53.576;9.822;2023-02-01T13:41:35;2.43;;;1.07;;
5452;SDS011;2749;53.576;9.822;2023-02-01T13:44:09;2.50;;;1.20;;
5452;SDS011;2749;53.576;9.822;2023-02-01T13:46:40;8.77;;;2.77;;
5452;SDS011;2749;53.576;9.822;2023-02-01T13:49:07;2.30;;;0.93;;
5452;SDS011;2749;53.576;9.822;2023-02-01T13:51:43;2.77;;;0.90;;
5452;SDS011;2749;53.576;9.822;2023-02-01T13:54:27;4.33;;;1.33;;
5452;SDS011;2749;53.576;9.822;2023-02-01T13:56:54;1.27;;;0.87;;
5452;SDS011;2749;53.576;9.822;2023-02-01T13:59:37;6.13;;;1.33;;
5452;SDS011;2749;53.576;9.822;2023-02-01T14:04:56;1.93;;;1.50;;
5452;SDS011;2749;53.576;9.822;2023-02-01T14:07:22;4.70;;;1.47;;
5452;SDS011;2749;53.576;9.822;2023-02-01T14:09:48;7.03;;;1.77;;
5452;SDS011;2749;53.576;9.822;2023-02-01T14:15:16;13.97;;;3.10;;
5452;SDS011;2749;53.576;9.822;2023-02-01T14:17:43;6.90;;;1.97;;
5452;SDS011;2749;53.576;9.822;2023-02-01T14:23:00;8.70;;;3.27;;
5452;SDS011;2749;53.576;9.822;2023-02-01T14:25:31;14.13;;;3.60;;
5452;SDS011;2749;53.576;9.822;2023-02-01T14:27:57;9.13;;;2.33;;
5452;SDS011;2749;53.576;9.822;2023-02-01T14:30:23;9.97;;;2.70;;
5452;SDS011;2749;53.576;9.822;2023-02-01T14:32:49;5.13;;;1.00;;
5452;SDS011;2749;53.576;9.822;2023-02-01T14:35:19;6.13;;;1.60;;
5452;SDS011;2749;53.576;9.822;2023-02-01T14:37:45;2.03;;;1.53;;
5452;SDS011;2749;53.576;9.822;2023-02-01T14:55:55;13.07;;;3.00;;
5452;SDS011;2749;53.576;9.822;2023-02-01T15:00:54;10.83;;;3.53;;
5452;SDS011;2749;53.576;9.822;2023-02-01T15:03:43;6.37;;;2.63;;
5452;SDS011;2749;53.576;9.822;2023-02-01T15:06:20;10.80;;;3.33;;
5452;SDS011;2749;53.576;9.822;2023-02-01T15:08:48;7.93;;;2.90;;
5452;SDS011;2749;53.576;9.822;2023-02-01T15:11:14;6.53;;;2.23;;
5452;SDS011;2749;53.576;9.822;2023-02-01T15:13:47;12.23;;;3.77;;
5452;SDS011;2749;53.576;9.822;2023-02-01T15:16:14;9.53;;;2.80;;
5452;SDS011;2749;53.576;9.822;2023-02-01T15:18:40;13.03;;;3.70;;
5452;SDS011;2749;53.576;9.822;2023-02-01T15:21:12;6.60;;;2.53;;
5452;SDS011;2749;53.576;9.822;2023-02-01T15:23:39;12.87;;;2.90;;
5452;SDS011;2749;53.576;9.822;2023-02-01T15:26:05;13.17;;;3.23;;
5452;SDS011;2749;53.576;9.822;2023-02-01T15:28:31;9.33;;;2.90;;
5452;SDS011;2749;53.576;9.822;2023-02-01T15:30:58;5.80;;;2.10;;
5452;SDS011;2749;53.576;9.822;2023-02-01T15:33:25;10.73;;;2.43;;
5452;SDS011;2749;53.576;9.822;2023-02-01T15:35:56;9.87;;;3.40;;
5452;SDS011;2749;53.576;9.822;2023-02-01T15:38:38;7.93;;;3.13;;
5452;SDS011;2749;53.576;9.822;2023-02-01T15:43:36;11.03;;;3.70;;
5452;SDS011;2749;53.576;9.822;2023-02-01T15:46:03;9.07;;;2.70;;
5452;SDS011;2749;53.576;9.822;2023-02-01T15:48:35;14.23;;;3.33;;
5452;SDS011;2749;53.576;9.822;2023-02-01T15:51:02;12.87;;;2.90;;
5452;SDS011;2749;53.576;9.822;2023-02-01T15:53:28;13.83;;;3.63;;
5452;SDS011;2749;53.576;9.822;2023-02-01T15:55:57;20.73;;;4.20;;
5452;SDS011;2749;53.576;9.822;2023-02-01T15:58:24;15.77;;;4.73;;
5452;SDS011;2749;53.576;9.822;2023-02-01T16:00:52;22.80;;;4.90;;
5452;SDS011;2749;53.576;9.822;2023-02-01T16:03:26;17.17;;;4.80;;
5452;SDS011;2749;53.576;9.822;2023-02-01T16:05:56;19.47;;;5.27;;
5452;SDS011;2749;53.576;9.822;2023-02-01T16:08:24;17.50;;;3.90;;
5452;SDS011;2749;53.576;9.822;2023-02-01T16:10:51;13.07;;;4.00;;
5452;SDS011;2749;53.576;9.822;2023-02-01T16:13:18;15.77;;;4.07;;
5452;SDS011;2749;53.576;9.822;2023-02-01T16:15:45;16.80;;;3.73;;
5452;SDS011;2749;53.576;9.822;2023-02-01T16:18:11;22.37;;;3.80;;
5452;SDS011;2749;53.576;9.822;2023-02-01T16:20:38;17.90;;;4.40;;
5452;SDS011;2749;53.576;9.822;2023-02-01T16:23:04;23.67;;;4.77;;
5452;SDS011;2749;53.576;9.822;2023-02-01T16:25:30;27.83;;;6.00;;
5452;SDS011;2749;53.576;9.822;2023-02-01T16:27:57;29.70;;;6.27;;
5452;SDS011;2749;53.576;9.822;2023-02-01T16:30:23;25.80;;;6.33;;
5452;SDS011;2749;53.576;9.822;2023-02-01T16:32:52;19.00;;;4.20;;
5452;SDS011;2749;53.576;9.822;2023-02-01T16:35:28;17.43;;;6.53;;
5452;SDS011;2749;53.576;9.822;2023-02-01T16:37:57;20.20;;;6.20;;
5452;SDS011;2749;53.576;9.822;2023-02-01T16:40:23;25.30;;;6.00;;
5452;SDS011;2749;53.576;9.822;2023-02-01T16:42:50;33.10;;;6.40;;
5452;SDS011;2749;53.576;9.822;2023-02-01T16:45:17;33.77;;;6.67;;
5452;SDS011;2749;53.576;9.822;2023-02-01T16:47:45;31.57;;;9.80;;
5452;SDS011;2749;53.576;9.822;2023-02-01T16:50:16;31.67;;;7.07;;
5452;SDS011;2749;53.576;9.822;2023-02-01T16:52:43;26.77;;;5.83;;
5452;SDS011;2749;53.576;9.822;2023-02-01T16:55:13;29.33;;;9.00;;
5452;SDS011;2749;53.576;9.822;2023-02-01T16:57:40;25.27;;;6.70;;
5452;SDS011;2749;53.576;9.822;2023-02-01T17:00:11;24.67;;;5.70;;
5452;SDS011;2749;53.576;9.822;2023-02-01T17:02:38;23.90;;;7.00;;
5452;SDS011;2749;53.576;9.822;2023-02-01T17:05:07;21.83;;;6.37;;
5452;SDS011;2749;53.576;9.822;2023-02-01T17:07:33;25.73;;;4.70;;
5452;SDS011;2749;53.576;9.822;2023-02-01T17:10:00;22.23;;;6.17;;
5452;SDS011;2749;53.576;9.822;2023-02-01T17:12:28;23.27;;;5.40;;
5452;SDS011;2749;53.576;9.822;2023-02-01T17:14:55;21.10;;;5.60;;
5452;SDS011;2749;53.576;9.822;2023-02-01T17:17:22;26.43;;;6.60;;
5452;SDS011;2749;53.576;9.822;2023-02-01T17:19:48;27.27;;;7.17;;
5452;SDS011;2749;53.576;9.822;2023-02-01T17:22:21;22.27;;;6.93;;
5452;SDS011;2749;53.576;9.822;2023-02-01T17:24:47;16.53;;;7.83;;